Time;durP1;ratioP1;P1;durP2;ratioP2;P2;SDS_P1;SDS_P2;PMS_P1;PMS_P2;Temp;Humidity;BMP_temperature;BMP_pressure;BME280_temperature;BME280_humidity;BME280_pressure;Samples;Min_cycle;Max_cycle;Signal;HPM_P1;HPM_P2
2023/09/17 00:03:03;;;;;;;10.63;8.15;;;;;;;10.83;72.30;97327.97;6198972;28;20054;-68
2023/09/17 00:06:08;;;;;;;;;;;;;;;10.73;72.56;97328.50;6199382;28;20050;-68
2023/09/17 00:09:14;;;;;;;11.50;7.18;;;;;;;10.71;72.18;97325.09;6199144;28;19922;-69
2023/09/17 00:12:19;;;;;;;12.23;7.57;;;;;;;10.70;72.35;97323.41;6199208;28;20046;-69
2023/09/17 00:15:26;;;;;;;10.50;7.20;;;;;;;10.71;72.04;97325.09;6198493;28;20054;-69
2023/09/17 00:18:30;;;;;;;11.48;7.63;;;;;;;10.71;72.22;97319.00;6198679;28;20039;-69
2023/09/17 00:21:34;;;;;;;12.65;7.53;;;;;;;10.68;72.22;97320.03;6198628;28;20042;-69
2023/09/17 00:24:35;;;;;;;9.27;6.78;;;;;;;10.67;72.19;97318.34;6198083;28;20049;-69
2023/09/17 00:27:40;;;;;;;11.00;7.28;;;;;;;10.64;72.67;97330.81;6198341;28;20095;-69
2023/09/17 00:30:45;;;;;;;10.10;6.38;;;;;;;10.62;72.85;97324.81;6198597;28;20042;-69
2023/09/17 00:33:48;;;;;;;7.35;5.45;;;;;;;10.59;73.12;97325.81;6197713;28;20057;-68
2023/09/17 00:36:54;;;;;;;8.07;6.07;;;;;;;10.54;73.26;97325.25;6198217;28;20053;-69
2023/09/17 00:39:58;;;;;;;9.57;6.07;;;;;;;10.47;73.70;97327.38;6198355;28;20042;-68
2023/09/17 00:43:03;;;;;;;9.65;6.13;;;;;;;10.41;74.23;97321.59;6197442;28;20425;-68
2023/09/17 00:46:05;;;;;;;11.02;6.50;;;;;;;10.41;74.14;97321.59;6197019;28;20510;-68
2023/09/17 00:49:12;;;;;;;9.65;6.13;;;;;;;10.40;74.51;97326.03;6197550;28;20054;-70
2023/09/17 00:52:19;;;;;;;8.68;6.35;;;;;;;10.34;74.55;97326.38;6197431;28;20042;-69
2023/09/17 00:55:21;;;;;;;11.48;6.53;;;;;;;10.33;74.65;97335.19;6197145;28;20403;-68
2023/09/17 00:58:23;;;;;;;7.93;6.00;;;;;;;10.28;74.64;97332.84;6197587;28;20047;-70
2023/09/17 01:01:30;;;;;;;11.02;5.70;;;;;;;10.23;74.63;97340.09;6197733;28;20497;-69
2023/09/17 01:04:33;;;;;;;8.25;5.28;;;;;;;10.20;75.06;97335.00;6197508;28;20506;-70
2023/09/17 01:07:35;;;;;;;8.70;5.97;;;;;;;10.10;75.05;97333.81;6196853;28;20046;-70
2023/09/17 01:10:40;;;;;;;8.82;5.70;;;;;;;10.06;75.11;97332.31;6197633;28;20041;-70
2023/09/17 01:13:58;;;;;;;9.55;5.90;;;;;;;10.04;75.46;97334.16;6196062;28;20421;-69
2023/09/17 01:17:03;;;;;;;7.43;5.38;;;;;;;9.95;75.61;97339.94;6197414;28;20048;-69
2023/09/17 01:20:24;;;;;;;10.82;5.63;;;;;;;9.93;76.02;97341.78;6197651;28;20041;-69
2023/09/17 01:23:38;;;;;;;8.38;6.03;;;;;;;9.85;75.78;97332.56;6196973;28;20054;-69
2023/09/17 01:26:40;;;;;;;9.23;6.60;;;;;;;9.80;76.03;97329.31;6195914;28;20054;-69
2023/09/17 01:29:49;;;;;;;11.73;7.00;;;;;;;9.77;75.98;97332.13;6195996;28;20097;-69
2023/09/17 01:32:51;;;;;;;13.88;7.65;;;;;;;9.72;75.84;97334.16;6196659;28;20042;-69
2023/09/17 01:35:58;;;;;;;13.63;8.80;;;;;;;9.66;75.59;97342.38;6196930;28;20106;-69
2023/09/17 01:39:10;;;;;;;17.45;9.82;;;;;;;9.58;75.65;97336.66;6196785;28;20045;-69
2023/09/17 01:42:19;;;;;;;19.65;10.50;;;;;;;9.52;75.58;97348.34;6197024;28;20496;-69
2023/09/17 01:45:21;;;;;;;17.27;9.38;;;;;;;9.47;75.87;97349.53;6196470;28;20645;-69
2023/09/17 01:48:27;;;;;;;13.07;7.75;;;;;;;9.44;76.05;97346.13;6196786;28;20057;-69
2023/09/17 01:51:34;;;;;;;18.00;8.90;;;;;;;9.46;76.25;97342.59;6195473;28;20042;-69
2023/09/17 01:54:36;;;;;;;18.00;7.68;;;;;;;9.44;76.22;97346.13;6196081;28;20066;-69
2023/09/17 01:57:37;;;;;;;13.85;6.85;;;;;;;9.40;76.24;97331.47;6195404;28;20050;-69
2023/09/17 02:00:45;;;;;;;9.32;5.90;;;;;;;9.50;76.88;97349.34;6197064;28;20514;-70
2023/09/17 02:03:49;;;;;;;9.20;6.07;;;;;;;9.55;76.70;97352.59;6198372;28;20042;-70
2023/09/17 02:06:53;;;;;;;10.73;5.90;;;;;;;9.58;76.92;97349.81;6195118;28;20062;-71
2023/09/17 02:09:57;;;;;;;9.52;6.35;;;;;;;9.60;77.02;97355.84;6196312;28;20133;-69
2023/09/17 02:12:59;;;;;;;10.00;6.03;;;;;;;9.60;77.13;97355.84;6194993;28;20042;-69
2023/09/17 02:16:00;;;;;;;11.90;6.80;;;;;;;9.59;77.02;97348.84;6193660;28;20046;-69
2023/09/17 02:19:05;;;;;;;8.60;6.32;;;;;;;9.62;77.08;97344.31;6196898;28;20105;-69
2023/09/17 02:22:07;;;;;;;7.18;6.00;;;;;;;9.63;77.19;97356.50;6196208;28;20081;-69
2023/09/17 02:25:13;;;;;;;14.52;6.78;;;;;;;9.62;77.20;97348.69;6195440;28;20046;-69
2023/09/17 02:28:18;;;;;;;9.70;6.40;;;;;;;9.67;77.25;97349.31;6195926;28;20140;-69
2023/09/17 02:31:21;;;;;;;11.82;6.88;;;;;;;9.70;77.21;97357.03;6194770;28;20038;-69
2023/09/17 02:34:26;;;;;;;8.75;6.07;;;;;;;9.73;77.24;97356.84;6195623;28;20134;-69
2023/09/17 02:37:29;;;;;;;9.95;6.90;;;;;;;9.85;77.22;97356.22;6195271;28;20046;-69
2023/09/17 02:40:33;;;;;;;7.45;5.40;;;;;;;9.94;76.97;97361.91;6195941;28;20042;-69
2023/09/17 02:43:37;;;;;;;10.75;6.70;;;;;;;9.98;76.93;97363.41;6195785;28;20069;-69
2023/09/17 02:46:41;;;;;;;44.50;24.48;;;;;;;10.03;76.76;97358.75;6195173;28;20433;-69
2023/09/17 02:49:43;;;;;;;15.60;9.88;;;;;;;10.03;76.30;97370.13;6195228;28;20184;-69
2023/09/17 02:52:44;;;;;;;19.92;9.18;;;;;;;10.09;75.77;97369.78;6194214;28;20050;-69
2023/09/17 02:55:50;;;;;;;39.17;20.77;;;;;;;10.13;75.30;97370.44;6193465;28;20518;-69
2023/09/17 02:58:55;;;;;;;14.30;9.02;;;;;;;10.17;75.26;97355.38;6195495;28;20433;-69
2023/09/17 03:01:59;;;;;;;13.60;7.55;;;;;;;9.97;74.84;97322.31;6194905;28;20061;-70
2023/09/17 03:05:04;;;;;;;12.32;6.95;;;;;;;10.42;74.67;97381.19;6195107;28;20050;-70
2023/09/17 03:08:09;;;;;;;11.13;7.43;;;;;;;10.50;74.43;97382.47;6194015;28;20042;-69
2023/09/17 03:11:17;;;;;;;14.15;7.40;;;;;;;10.62;74.23;97380.91;6194279;28;20050;-70
2023/09/17 03:14:21;;;;;;;14.85;7.82;;;;;;;10.72;73.85;97382.06;6177663;28;20474;-69
2023/09/17 03:17:25;;;;;;;12.05;6.85;;;;;;;10.70;73.48;97376.06;6194880;28;20054;-69
2023/09/17 03:20:33;;;;;;;11.13;6.65;;;;;;;10.89;73.29;97391.63;6195336;28;20046;-69
2023/09/17 03:23:37;;;;;;;12.52;7.38;;;;;;;10.98;73.00;97395.50;6194413;28;20046;-69
2023/09/17 03:26:41;;;;;;;8.15;6.10;;;;;;;11.09;72.90;97398.38;6194593;28;20050;-70
2023/09/17 03:29:45;;;;;;;23.40;10.55;;;;;;;11.19;72.78;97391.63;6194672;28;20383;-70
2023/09/17 03:32:49;;;;;;;27.55;13.98;;;;;;;11.28;72.58;97395.50;6194903;28;20514;-69
2023/09/17 03:35:51;;;;;;;24.90;14.45;;;;;;;11.35;72.57;97393.34;6194526;28;20057;-70
2023/09/17 03:38:59;;;;;;;21.63;12.65;;;;;;;11.42;72.33;97399.94;6194727;28;20042;-70
2023/09/17 03:42:00;;;;;;;17.92;10.25;;;;;;;11.52;72.15;97400.22;6194745;28;20049;-69
2023/09/17 03:45:06;;;;;;;19.58;10.40;;;;;;;11.63;72.08;97401.31;6194602;28;20055;-69
2023/09/17 03:48:12;;;;;;;17.95;10.02;;;;;;;11.79;71.56;97405.63;6194668;28;20046;-71
2023/09/17 03:51:14;;;;;;;15.73;9.50;;;;;;;11.93;71.10;97407.47;6199089;28;20057;-69
2023/09/17 03:54:16;;;;;;;17.85;8.43;;;;;;;12.05;70.92;97415.44;6197554;28;20053;-69
2023/09/17 03:57:19;;;;;;;18.15;9.13;;;;;;;12.18;70.67;97405.00;6199063;28;20054;-70
2023/09/17 04:00:23;;;;;;;8.32;6.95;;;;;;;12.34;70.44;97415.41;6198494;28;20426;-70
2023/09/17 04:03:29;;;;;;;8.93;6.38;;;;;;;12.49;70.09;97409.16;6198691;28;20050;-70
2023/09/17 04:06:34;;;;;;;10.20;6.20;;;;;;;12.69;69.78;97410.53;6198175;28;20062;-70
2023/09/17 04:09:42;;;;;;;10.30;6.22;;;;;;;12.86;69.18;97420.00;6199128;28;20509;-70
2023/09/17 04:12:49;;;;;;;10.80;5.82;;;;;;;13.06;68.91;97421.31;6199052;28;20054;-69
2023/09/17 04:15:56;;;;;;;10.27;5.80;;;;;;;13.26;68.42;97425.31;6199114;28;20046;-70
2023/09/17 04:19:02;;;;;;;6.85;5.25;;;;;;;13.40;67.93;97417.31;6198843;28;20043;-69
2023/09/17 04:22:09;;;;;;;9.32;6.10;;;;;;;13.58;67.58;97422.28;6198997;28;20038;-70
2023/09/17 04:25:13;;;;;;;10.20;6.95;;;;;;;13.72;67.04;97422.19;6198024;28;20466;-70
2023/09/17 04:28:15;;;;;;;10.88;7.30;;;;;;;13.78;66.77;97427.03;6198180;28;20050;-70
2023/09/17 04:31:21;;;;;;;13.45;7.60;;;;;;;13.82;66.70;97428.53;6198466;28;20314;-71
2023/09/17 04:34:22;;;;;;;21.60;10.15;;;;;;;13.87;66.64;97434.38;6198242;28;20069;-70
2023/09/17 04:37:26;;;;;;;;;;;;;;;13.96;66.44;97437.34;6198732;28;20054;-69
2023/09/17 04:40:29;;;;;;;26.92;12.65;;;;;;;13.96;66.32;97432.88;6197934;28;19924;-69
2023/09/17 04:43:34;;;;;;;37.25;16.50;;;;;;;14.05;65.98;97434.03;6197676;28;20433;-69
2023/09/17 04:46:35;;;;;;;32.92;15.98;;;;;;;14.16;65.64;97436.78;6197519;28;20050;-69
2023/09/17 04:49:40;;;;;;;43.72;24.73;;;;;;;14.25;65.16;97430.81;6197407;28;20050;-69
2023/09/17 04:52:44;;;;;;;46.38;23.98;;;;;;;14.31;64.67;97424.25;6198235;28;20042;-69
2023/09/17 04:55:48;;;;;;;35.15;17.73;;;;;;;14.38;64.48;97431.66;6197748;28;20057;-69
2023/09/17 04:58:52;;;;;;;31.10;15.88;;;;;;;14.47;64.07;97430.16;6197111;28;20054;-69
2023/09/17 05:01:54;;;;;;;26.20;12.65;;;;;;;14.57;63.41;97433.84;6195695;28;20054;-69
2023/09/17 05:04:56;;;;;;;28.60;13.68;;;;;;;14.69;62.96;97425.97;6196925;28;20524;-70
2023/09/17 05:07:58;;;;;;;28.63;13.38;;;;;;;14.84;62.29;97430.16;6197212;28;20046;-70
2023/09/17 05:11:03;;;;;;;;;;;;;;;15.04;62.26;97434.00;6197765;28;20090;-69
2023/09/17 05:14:09;;;;;;;29.65;15.13;;;;;;;15.21;61.74;97436.25;6197755;28;20023;-69
2023/09/17 05:17:10;;;;;;;26.88;12.75;;;;;;;15.36;60.78;97428.09;6195789;28;20050;-68
2023/09/17 05:20:18;;;;;;;25.75;12.88;;;;;;;15.61;59.82;97430.56;6197717;28;20050;-70
2023/09/17 05:23:23;;;;;;;21.05;12.32;;;;;;;15.84;59.02;97431.50;6196821;28;20054;-70
2023/09/17 05:26:26;;;;;;;21.20;11.15;;;;;;;17.32;56.10;97423.19;6195774;28;20054;-69
2023/09/17 05:29:28;;;;;;;23.23;11.10;;;;;;;22.60;45.51;97437.78;6195948;28;20057;-67
2023/09/17 05:32:31;;;;;;;25.23;10.23;;;;;;;27.83;35.94;97443.84;6195114;28;20054;-69
2023/09/17 05:35:36;;;;;;;24.35;9.90;;;;;;;32.10;29.57;97447.44;6195919;28;20050;-69
2023/09/17 05:38:43;;;;;;;18.92;8.35;;;;;;;35.40;25.16;97453.91;6196961;28;20077;-69
2023/09/17 05:41:49;;;;;;;23.67;7.72;;;;;;;38.03;21.48;97458.28;6196890;28;20042;-69
2023/09/17 05:44:53;;;;;;;16.23;7.45;;;;;;;39.80;19.75;97453.16;6195013;28;20541;-69
2023/09/17 05:47:54;;;;;;;19.30;7.40;;;;;;;41.87;17.76;97463.16;6196084;28;20053;-69
2023/09/17 05:50:59;;;;;;;20.90;7.38;;;;;;;42.11;17.22;97443.09;6196428;28;20054;-69
2023/09/17 05:54:03;;;;;;;19.65;7.72;;;;;;;38.90;18.83;97439.63;6197027;28;20129;-69
2023/09/17 05:57:09;;;;;;;14.23;7.78;;;;;;;36.38;20.66;97433.47;6195452;28;20569;-69
2023/09/17 06:00:11;;;;;;;26.63;18.52;;;;;;;34.86;21.98;97433.13;6207888;28;20509;-68
2023/09/17 06:03:17;;;;;;;17.00;8.60;;;;;;;34.11;22.56;97435.75;6218333;28;20065;-69
2023/09/17 06:06:21;;;;;;;14.43;7.13;;;;;;;33.80;22.95;97429.53;6202055;28;20080;-68
2023/09/17 06:09:22;;;;;;;11.65;7.03;;;;;;;33.69;22.56;97427.59;6220445;28;20152;-68
2023/09/17 06:12:24;;;;;;;13.27;7.40;;;;;;;33.47;22.80;97430.81;6202143;28;20046;-68
2023/09/17 06:15:28;;;;;;;10.85;6.30;;;;;;;34.18;22.30;97433.75;6220318;28;20042;-69
2023/09/17 06:18:32;;;;;;;13.68;8.60;;;;;;;36.47;19.90;97436.59;6220530;28;20151;-69
2023/09/17 06:21:36;;;;;;;22.88;13.88;;;;;;;37.81;18.31;97442.66;6219654;28;20045;-69
2023/09/17 06:24:38;;;;;;;13.75;7.85;;;;;;;37.78;18.46;97445.09;6220263;28;20409;-69
2023/09/17 06:27:42;;;;;;;11.88;6.53;;;;;;;37.53;19.11;97436.34;6220134;28;20068;-69
2023/09/17 06:30:48;;;;;;;11.48;6.05;;;;;;;37.53;18.86;97433.59;6220269;28;20045;-67
2023/09/17 06:33:53;;;;;;;13.40;6.00;;;;;;;39.66;17.49;97437.16;6219911;28;20190;-68
2023/09/17 06:36:57;;;;;;;15.35;5.68;;;;;;;42.19;15.73;97448.00;6220033;28;20050;-69
2023/09/17 06:40:04;;;;;;;11.52;6.00;;;;;;;43.77;13.92;97458.38;6219891;28;20177;-68
2023/09/17 06:43:06;;;;;;;13.68;7.22;;;;;;;45.68;13.04;97442.34;6218890;28;20053;-69
2023/09/17 06:46:09;;;;;;;15.48;8.13;;;;;;;47.28;11.48;97450.16;6219848;28;20123;-69
2023/09/17 06:49:16;;;;;;;14.98;6.60;;;;;;;47.74;11.28;97443.19;6219758;28;20042;-67
2023/09/17 06:52:25;;;;;;;9.27;5.70;;;;;;;48.08;11.01;97445.16;6220041;28;20089;-68
2023/09/17 06:55:34;;;;;;;13.02;6.20;;;;;;;46.60;11.47;97447.59;6219965;28;20493;-67
2023/09/17 06:58:35;;;;;;;10.10;4.70;;;;;;;45.97;11.89;97429.16;6219170;28;20461;-67
2023/09/17 07:01:41;;;;;;;9.73;4.90;;;;;;;47.21;10.84;97437.53;6218732;28;20100;-67
2023/09/17 07:04:47;;;;;;;8.23;5.05;;;;;;;48.74;10.30;97430.91;6219487;28;20182;-67
2023/09/17 07:07:50;;;;;;;7.47;4.22;;;;;;;49.07;9.90;97424.69;6201510;28;20050;-68
2023/09/17 07:10:54;;;;;;;6.20;4.20;;;;;;;49.31;9.44;97430.47;6219543;28;20038;-67
2023/09/17 07:13:56;;;;;;;7.88;3.83;;;;;;;50.20;9.75;97424.66;6219081;28;20057;-68
2023/09/17 07:17:02;;;;;;;4.82;3.58;;;;;;;51.51;8.36;97423.84;6219491;28;20054;-68
2023/09/17 07:20:07;;;;;;;4.88;2.67;;;;;;;52.14;8.22;97430.91;6219569;28;20502;-68
2023/09/17 07:23:09;;;;;;;3.95;3.33;;;;;;;52.51;8.22;97415.47;6218914;28;20549;-68
2023/09/17 07:26:15;;;;;;;5.35;1.98;;;;;;;52.83;8.39;97426.75;6223081;28;20123;-68
2023/09/17 07:29:18;;;;;;;4.32;1.90;;;;;;;52.76;7.78;97426.56;6223775;28;20081;-68
2023/09/17 07:32:20;;;;;;;3.28;1.15;;;;;;;52.71;8.11;97424.84;6224204;28;20053;-68
2023/09/17 07:35:26;;;;;;;1.40;1.10;;;;;;;52.93;7.28;97426.19;6223748;28;20058;-68
2023/09/17 07:38:31;;;;;;;3.58;0.90;;;;;;;53.26;6.92;97416.56;6223205;28;20054;-68
2023/09/17 07:41:34;;;;;;;1.60;1.50;;;;;;;53.49;7.21;97424.31;6223298;28;20046;-68
2023/09/17 07:44:38;;;;;;;3.63;2.85;;;;;;;53.79;6.56;97422.59;6223652;28;20037;-67
2023/09/17 07:47:42;;;;;;;2.45;1.10;;;;;;;54.21;6.80;97427.44;6205766;28;20520;-68
2023/09/17 07:50:59;;;;;;;2.25;0.95;;;;;;;54.65;6.54;97429.09;6222793;28;20333;-69
2023/09/17 07:54:03;;;;;;;5.82;1.20;;;;;;;54.75;6.09;97427.63;6223714;28;20132;-68
2023/09/17 07:57:10;;;;;;;1.55;0.95;;;;;;;54.87;6.46;97425.44;6223452;28;20046;-68
2023/09/17 08:00:21;;;;;;;3.85;0.95;;;;;;;55.32;5.84;97420.09;6223639;28;20042;-67
2023/09/17 08:03:24;;;;;;;6.57;4.97;;;;;;;55.44;5.62;97421.91;6223409;28;20048;-67
2023/09/17 08:06:29;;;;;;;3.42;1.33;;;;;;;55.87;5.74;97428.09;6223338;28;20133;-67
2023/09/17 08:09:36;;;;;;;2.92;2.20;;;;;;;55.97;5.56;97414.16;6223122;28;20504;-67
2023/09/17 08:12:40;;;;;;;1.55;1.38;;;;;;;55.60;5.27;97414.06;6222205;28;20401;-67
2023/09/17 08:15:49;;;;;;;1.40;1.00;;;;;;;54.39;5.99;97404.47;6223103;28;20041;-67
2023/09/17 08:18:50;;;;;;;2.60;1.42;;;;;;;53.64;6.38;97406.53;6222348;28;20053;-68
2023/09/17 08:21:52;;;;;;;2.97;1.35;;;;;;;53.23;6.74;97394.78;6222688;28;20034;-68
2023/09/17 08:24:58;;;;;;;5.00;3.35;;;;;;;53.40;6.44;97394.41;6222784;28;20123;-68
2023/09/17 08:28:22;;;;;;;6.75;5.55;;;;;;;53.92;5.98;97397.91;6222270;28;20052;-68
2023/09/17 08:31:47;;;;;;;3.85;2.53;;;;;;;54.09;5.76;97391.00;6221971;28;20059;-68
2023/09/17 08:35:16;;;;;;;6.68;2.67;;;;;;;54.42;6.25;97392.44;6221896;28;20506;-68
2023/09/17 08:38:21;;;;;;;7.03;2.95;;;;;;;54.09;6.23;97381.75;6222034;28;20060;-68
2023/09/17 08:41:23;;;;;;;12.65;4.18;;;;;;;53.88;5.86;97382.94;6222510;28;20041;-68
2023/09/17 08:44:26;;;;;;;6.88;2.55;;;;;;;53.06;6.45;97378.34;6221936;28;20049;-68
2023/09/17 08:47:28;;;;;;;2.72;2.03;;;;;;;52.78;6.41;97368.03;6221816;28;20532;-68
2023/09/17 08:50:38;;;;;;;3.50;2.10;;;;;;;52.94;6.55;97371.63;6204353;28;20053;-68
2023/09/17 08:54:05;;;;;;;3.55;1.95;;;;;;;53.30;6.72;97364.00;6222506;28;20511;-68
2023/09/17 08:57:10;;;;;;;4.70;3.17;;;;;;;52.99;6.95;97355.66;6221387;28;20104;-68
2023/09/17 09:00:21;;;;;;;2.88;1.70;;;;;;;52.72;6.29;97358.25;6221674;28;20053;-68
2023/09/17 09:03:27;;;;;;;5.82;2.47;;;;;;;52.75;6.68;97354.72;6222132;28;20493;-68
2023/09/17 09:06:34;;;;;;;2.50;1.67;;;;;;;52.12;6.77;97363.88;6221949;28;20041;-68
2023/09/17 09:09:38;;;;;;;3.30;1.75;;;;;;;51.98;7.17;97364.31;6221749;28;20045;-68
2023/09/17 09:12:42;;;;;;;2.00;1.73;;;;;;;52.16;6.86;97352.75;6221006;28;20042;-68
2023/09/17 09:15:48;;;;;;;1.83;0.93;;;;;;;52.17;6.57;97343.16;6222066;28;20045;-69
2023/09/17 09:18:54;;;;;;;3.83;1.30;;;;;;;52.12;6.75;97349.03;6221700;28;20535;-68
2023/09/17 09:21:59;;;;;;;2.45;1.35;;;;;;;51.85;6.56;97340.28;6221336;28;20054;-69
2023/09/17 09:25:02;;;;;;;2.50;1.83;;;;;;;51.24;6.80;97341.28;6221110;28;20140;-69
2023/09/17 09:28:05;;;;;;;2.40;2.00;;;;;;;50.87;7.03;97332.91;6221326;28;20042;-69
2023/09/17 09:31:07;;;;;;;3.63;1.60;;;;;;;50.44;7.10;97325.09;6221302;28;20120;-69
2023/09/17 09:34:13;;;;;;;4.97;1.55;;;;;;;49.24;8.05;97312.81;6220847;28;20100;-69
2023/09/17 09:37:14;;;;;;;5.32;1.40;;;;;;;49.04;7.73;97313.59;6220897;28;20520;-69
2023/09/17 09:40:18;;;;;;;4.53;1.40;;;;;;;49.00;7.83;97303.09;6221315;28;20046;-69
2023/09/17 09:43:31;;;;;;;1.55;1.30;;;;;;;49.37;7.79;97306.09;6202789;28;20137;-69
2023/09/17 09:46:36;;;;;;;5.28;1.80;;;;;;;49.62;7.65;97306.22;6220383;28;20420;-69
2023/09/17 09:49:42;;;;;;;4.95;1.63;;;;;;;49.26;7.47;97307.69;6202828;28;20045;-69
2023/09/17 09:52:44;;;;;;;5.57;1.75;;;;;;;48.79;7.90;97307.81;6220723;28;20050;-69
2023/09/17 09:55:46;;;;;;;11.55;6.90;;;;;;;48.52;8.28;97304.34;6219988;28;20061;-69
2023/09/17 09:58:51;;;;;;;4.65;3.45;;;;;;;49.12;7.77;97307.09;6221088;28;20046;-69
2023/09/17 10:01:55;;;;;;;4.28;2.75;;;;;;;49.71;7.60;97298.56;6219975;28;20045;-69
2023/09/17 10:05:01;;;;;;;3.67;1.63;;;;;;;50.13;7.21;97304.06;6220734;28;20037;-68
2023/09/17 10:08:07;;;;;;;2.88;1.25;;;;;;;49.75;7.74;97293.94;6220128;28;20061;-67
2023/09/17 10:11:09;;;;;;;5.80;1.55;;;;;;;48.79;7.78;97289.09;6219865;28;20065;-69
2023/09/17 10:14:13;;;;;;;6.35;1.50;;;;;;;47.53;8.30;97284.91;6220266;28;20049;-69
2023/09/17 10:17:17;;;;;;;6.07;1.63;;;;;;;47.45;8.46;97275.44;6220088;28;20196;-68
2023/09/17 10:20:20;;;;;;;4.35;1.58;;;;;;;47.75;8.75;97288.66;6219674;28;20046;-68
2023/09/17 10:23:24;;;;;;;7.13;1.50;;;;;;;47.84;8.26;97289.47;6219351;28;20421;-68
2023/09/17 10:26:32;;;;;;;4.45;1.48;;;;;;;47.94;8.89;97282.75;6220354;28;20529;-69
2023/09/17 10:29:38;;;;;;;4.50;1.73;;;;;;;47.57;8.35;97280.34;6220192;28;20046;-69
2023/09/17 10:32:47;;;;;;;7.68;2.65;;;;;;;47.12;9.22;97286.25;6219839;28;20144;-69
2023/09/17 10:35:55;;;;;;;4.03;1.80;;;;;;;46.90;8.76;97272.44;6219764;28;20238;-68
2023/09/17 10:38:59;;;;;;;4.97;2.33;;;;;;;46.60;8.82;97263.88;6202604;28;20053;-68
2023/09/17 10:42:06;;;;;;;7.65;2.70;;;;;;;46.27;9.25;97271.75;6219432;28;20053;-68
2023/09/17 10:45:10;;;;;;;10.25;4.85;;;;;;;46.01;9.50;97272.47;6219890;28;20041;-68
2023/09/17 10:48:16;;;;;;;12.77;5.25;;;;;;;45.53;9.83;97269.56;6219288;28;20100;-69
2023/09/17 10:51:19;;;;;;;15.68;6.65;;;;;;;45.01;10.18;97259.66;6219046;28;20050;-67
2023/09/17 10:54:23;;;;;;;10.00;6.03;;;;;;;44.31;10.52;97257.25;6218887;28;20052;-69
2023/09/17 10:57:32;;;;;;;23.08;12.82;;;;;;;42.38;12.10;97263.63;6218063;28;20057;-69
2023/09/17 11:00:35;;;;;;;31.85;18.98;;;;;;;39.21;14.55;97254.28;6224119;28;20053;-69
2023/09/17 11:03:41;;;;;;;35.92;20.80;;;;;;;36.36;16.71;97249.28;6224348;28;20053;-69
2023/09/17 11:06:52;;;;;;;34.42;19.65;;;;;;;34.31;18.90;97255.09;6224926;28;20045;-71
2023/09/17 11:09:58;;;;;;;38.92;22.20;;;;;;;32.60;20.04;97250.41;6224813;28;20049;-70
2023/09/17 11:13:05;;;;;;;39.05;20.58;;;;;;;31.25;21.82;97243.88;6223461;28;20101;-69
2023/09/17 11:16:09;;;;;;;35.83;20.13;;;;;;;30.04;22.62;97246.59;6224863;28;20381;-70
2023/09/17 11:19:16;;;;;;;39.22;19.38;;;;;;;29.13;23.44;97250.03;6207085;28;20045;-70
2023/09/17 11:22:18;;;;;;;39.92;21.60;;;;;;;28.39;24.36;97251.69;6224099;28;20052;-69
2023/09/17 11:25:34;;;;;;;39.55;20.85;;;;;;;27.63;25.26;97251.69;6223854;28;20053;-69
2023/09/17 11:28:39;;;;;;;34.45;20.10;;;;;;;26.85;26.03;97255.22;6224139;28;20050;-70
2023/09/17 11:31:52;;;;;;;39.40;20.42;;;;;;;26.41;26.42;97250.78;6223374;28;20065;-70
2023/09/17 11:34:54;;;;;;;39.05;19.63;;;;;;;25.99;27.01;97256.91;6222684;28;20057;-70
2023/09/17 11:37:56;;;;;;;39.55;19.38;;;;;;;25.73;27.94;97254.66;6223227;28;20180;-70
2023/09/17 11:41:00;;;;;;;45.75;20.95;;;;;;;25.60;28.13;97251.78;6224026;28;20049;-70
2023/09/17 11:44:04;;;;;;;40.87;19.83;;;;;;;25.55;27.89;97255.00;6222181;28;20050;-70
2023/09/17 11:47:12;;;;;;;26.27;12.27;;;;;;;25.50;28.45;97271.72;6223971;28;20425;-71
2023/09/17 11:50:18;;;;;;;22.23;9.35;;;;;;;25.42;29.15;97277.22;6224058;28;20329;-69
2023/09/17 11:53:22;;;;;;;8.50;4.72;;;;;;;25.41;29.80;97274.69;6223627;28;20038;-70
2023/09/17 11:56:29;;;;;;;5.38;2.22;;;;;;;25.40;29.69;97273.88;6223238;28;20408;-70
2023/09/17 11:59:39;;;;;;;6.45;2.42;;;;;;;25.49;29.55;97272.75;6223127;28;20050;-70
2023/09/17 12:02:44;;;;;;;5.82;3.05;;;;;;;25.53;29.76;97281.31;6223516;28;20386;-70
2023/09/17 12:05:46;;;;;;;7.88;4.13;;;;;;;25.64;29.57;97275.47;6222601;28;20076;-70
2023/09/17 12:08:48;;;;;;;4.90;3.20;;;;;;;26.26;29.28;97271.56;6222544;28;20394;-70
2023/09/17 12:11:50;;;;;;;3.53;2.20;;;;;;;27.19;28.23;97274.47;6222269;28;20053;-70
2023/09/17 12:14:54;;;;;;;6.00;1.95;;;;;;;27.54;27.95;97283.47;6222992;28;20425;-70
2023/09/17 12:18:01;;;;;;;4.13;2.28;;;;;;;27.47;27.83;97277.19;6222934;28;20050;-70
2023/09/17 12:21:09;;;;;;;4.60;2.20;;;;;;;27.53;27.57;97271.81;6222618;28;20336;-70
2023/09/17 12:24:20;;;;;;;6.65;2.13;;;;;;;27.36;27.33;97277.72;6221828;28;20046;-70
2023/09/17 12:27:24;;;;;;;4.35;1.85;;;;;;;26.93;27.84;97264.22;6222839;28;20065;-69
2023/09/17 12:30:29;;;;;;;3.65;1.60;;;;;;;26.66;28.07;97263.94;6222622;28;20506;-71
2023/09/17 12:33:31;;;;;;;5.37;1.97;;;;;;;26.44;28.47;97271.16;6222117;28;20402;-69
2023/09/17 12:36:32;;;;;;;6.70;1.75;;;;;;;26.17;28.42;97264.59;6221886;28;20053;-69
2023/09/17 12:39:34;;;;;;;10.85;3.15;;;;;;;25.75;28.79;97260.69;6221914;28;20394;-68
2023/09/17 12:42:37;;;;;;;6.60;3.20;;;;;;;25.40;29.31;97273.88;6222651;28;20041;-70
2023/09/17 12:45:39;;;;;;;6.90;3.47;;;;;;;25.17;29.67;97271.22;6221479;28;20057;-70
2023/09/17 12:48:43;;;;;;;10.57;4.15;;;;;;;24.97;29.96;97280.78;6222528;28;20608;-70
2023/09/17 12:51:51;;;;;;;7.78;3.45;;;;;;;24.56;30.54;97287.25;6221883;28;20421;-70
2023/09/17 12:54:59;;;;;;;7.30;2.78;;;;;;;23.82;31.21;97276.00;6221011;28;20127;-70
2023/09/17 12:58:06;;;;;;;8.30;3.15;;;;;;;23.47;31.90;97285.28;6221365;28;20054;-70
2023/09/17 13:01:14;;;;;;;6.50;3.03;;;;;;;23.28;31.26;97298.06;6220683;28;20085;-70
2023/09/17 13:04:18;;;;;;;7.10;3.60;;;;;;;23.09;31.23;97287.66;6221064;28;20045;-70
2023/09/17 13:07:24;;;;;;;6.15;3.35;;;;;;;22.78;31.84;97274.84;6221076;28;20461;-70
2023/09/17 13:10:28;;;;;;;9.68;4.85;;;;;;;22.50;32.51;97286.88;6221713;28;20038;-70
2023/09/17 13:13:32;;;;;;;4.60;2.38;;;;;;;22.23;33.13;97280.78;6221447;28;20433;-69
2023/09/17 13:16:34;;;;;;;4.90;2.50;;;;;;;21.90;33.95;97283.31;6202769;28;20046;-70
2023/09/17 13:19:36;;;;;;;4.20;1.98;;;;;;;21.75;33.93;97276.88;6221245;28;20050;-70
2023/09/17 13:22:40;;;;;;;4.05;1.50;;;;;;;21.68;34.45;97275.81;6220305;28;21176;-69
2023/09/17 13:25:42;;;;;;;2.45;1.65;;;;;;;21.66;34.71;97284.03;6220617;28;20056;-70
2023/09/17 13:28:51;;;;;;;5.80;2.28;;;;;;;21.47;34.86;97271.69;6221346;28;20420;-69
2023/09/17 13:31:55;;;;;;;25.95;13.45;;;;;;;21.29;35.37;97279.75;6203225;28;20065;-71
2023/09/17 13:35:00;;;;;;;16.85;8.30;;;;;;;21.01;35.99;97279.03;6220416;28;20089;-70
2023/09/17 13:38:10;;;;;;;7.10;3.80;;;;;;;20.74;36.88;97289.81;6220955;28;20079;-69
2023/09/17 13:41:21;;;;;;;14.83;3.73;;;;;;;20.50;37.20;97291.25;6221248;28;20444;-69
2023/09/17 13:44:25;;;;;;;7.05;3.78;;;;;;;20.27;38.21;97289.97;6220378;28;20072;-70
2023/09/17 13:47:29;;;;;;;13.68;5.38;;;;;;;20.03;39.16;97285.19;6220639;28;20428;-70
2023/09/17 13:50:30;;;;;;;6.18;2.55;;;;;;;19.79;39.47;97291.06;6220051;28;20050;-70
2023/09/17 13:53:37;;;;;;;7.90;4.20;;;;;;;19.59;40.05;97285.78;6220607;28;20041;-70
2023/09/17 13:56:41;;;;;;;24.85;14.13;;;;;;;19.39;40.75;97281.47;6220585;28;20042;-69
2023/09/17 13:59:43;;;;;;;10.98;4.80;;;;;;;19.22;41.13;97289.25;6219801;28;20052;-69
2023/09/17 14:02:47;;;;;;;8.45;4.18;;;;;;;19.05;41.81;97292.63;6219934;28;20054;-70
2023/09/17 14:05:48;;;;;;;7.25;4.05;;;;;;;18.89;42.25;97292.38;6221522;28;20046;-70
2023/09/17 14:09:08;;;;;;;8.38;4.03;;;;;;;18.69;42.41;97292.34;6222188;28;20045;-70
2023/09/17 14:12:10;;;;;;;22.17;11.60;;;;;;;18.54;43.23;97296.38;6218988;28;20052;-70
2023/09/17 14:15:11;;;;;;;13.15;5.20;;;;;;;18.38;43.93;97289.78;6219205;28;20136;-69
2023/09/17 14:18:12;;;;;;;7.03;3.60;;;;;;;18.26;43.97;97290.88;6218078;28;20053;-70
2023/09/17 14:21:19;;;;;;;7.18;3.40;;;;;;;18.16;44.55;97290.00;6219677;28;20045;-70
2023/09/17 14:24:20;;;;;;;11.23;3.97;;;;;;;17.93;45.51;97295.56;6219965;28;20041;-70
2023/09/17 14:27:25;;;;;;;11.75;4.57;;;;;;;17.86;46.37;97298.88;6219701;28;20042;-70
2023/09/17 14:30:28;;;;;;;8.85;3.72;;;;;;;17.77;46.71;97310.31;6219849;28;20616;-70